sensor_id;sensor_type;location;lat;lon;timestamp;temperature;humidity
64226;DHT22;50545;56.064;26.178;2023-02-10T00:01:30;-1.60;99.90
64226;DHT22;50545;56.064;26.178;2023-02-10T00:03:57;-1.60;99.90
64226;DHT22;50545;56.064;26.178;2023-02-10T00:06:26;-1.60;99.90
64226;DHT22;50545;56.064;26.178;2023-02-10T00:08:59;-1.60;99.90
64226;DHT22;50545;56.064;26.178;2023-02-10T00:11:27;-1.60;99.90
64226;DHT22;50545;56.064;26.178;2023-02-10T00:14:15;-1.60;99.90
64226;DHT22;50545;56.064;26.178;2023-02-10T00:16:42;-1.50;99.90
64226;DHT22;50545;56.064;26.178;2023-02-10T00:19:10;-1.50;99.90
64226;DHT22;50545;56.064;26.178;2023-02-10T00:21:37;-1.50;99.90
64226;DHT22;50545;56.064;26.178;2023-02-10T00:24:04;-1.50;99.90
64226;DHT22;50545;56.064;26.178;2023-02-10T00:26:31;-1.50;99.90
64226;DHT22;50545;56.064;26.178;2023-02-10T00:28:58;-1.50;99.90
64226;DHT22;50545;56.064;26.178;2023-02-10T00:31:26;-1.60;99.90
64226;DHT22;50545;56.064;26.178;2023-02-10T00:33:53;-1.60;99.90
64226;DHT22;50545;56.064;26.178;2023-02-10T00:36:21;-1.60;99.90
64226;DHT22;50545;56.064;26.178;2023-02-10T00:38:48;-1.60;99.90
64226;DHT22;50545;56.064;26.178;2023-02-10T00:41:17;-1.60;99.90
64226;DHT22;50545;56.064;26.178;2023-02-10T00:43:45;-1.60;99.90
64226;DHT22;50545;56.064;26.178;2023-02-10T00:46:14;-1.60;99.90
64226;DHT22;50545;56.064;26.178;2023-02-10T00:48:43;-1.60;99.90
64226;DHT22;50545;56.064;26.178;2023-02-10T00:51:11;-1.60;99.90
64226;DHT22;50545;56.064;26.178;2023-02-10T00:53:39;-1.60;99.90
64226;DHT22;50545;56.064;26.178;2023-02-10T00:56:07;-1.60;99.90
64226;DHT22;50545;56.064;26.178;2023-02-10T00:58:34;-1.60;99.90
64226;DHT22;50545;56.064;26.178;2023-02-10T01:01:02;-1.60;99.90
64226;DHT22;50545;56.064;26.178;2023-02-10T01:03:30;-1.60;99.90
64226;DHT22;50545;56.064;26.178;2023-02-10T01:05:57;-1.70;99.90
64226;DHT22;50545;56.064;26.178;2023-02-10T01:08:24;-1.70;99.90
64226;DHT22;50545;56.064;26.178;2023-02-10T01:11:06;-1.70;99.90
64226;DHT22;50545;56.064;26.178;2023-02-10T01:13:36;-1.70;99.90
64226;DHT22;50545;56.064;26.178;2023-02-10T01:16:08;-1.80;99.90
64226;DHT22;50545;56.064;26.178;2023-02-10T01:18:40;-1.80;99.90
64226;DHT22;50545;56.064;26.178;2023-02-10T01:21:09;-1.90;99.90
64226;DHT22;50545;56.064;26.178;2023-02-10T01:23:37;-1.90;99.90
64226;DHT22;50545;56.064;26.178;2023-02-10T01:26:04;-1.90;99.90
64226;DHT22;50545;56.064;26.178;2023-02-10T01:28:32;-1.90;99.90
64226;DHT22;50545;56.064;26.178;2023-02-10T01:31:11;-1.90;99.90
64226;DHT22;50545;56.064;26.178;2023-02-10T01:33:39;-2.00;99.90
64226;DHT22;50545;56.064;26.178;2023-02-10T01:36:14;-2.00;99.90
64226;DHT22;50545;56.064;26.178;2023-02-10T01:38:42;-2.10;99.90
64226;DHT22;50545;56.064;26.178;2023-02-10T01:41:09;-2.10;99.90
64226;DHT22;50545;56.064;26.178;2023-02-10T01:43:58;-2.10;99.90
64226;DHT22;50545;56.064;26.178;2023-02-10T01:46:28;-2.20;99.90
64226;DHT22;50545;56.064;26.178;2023-02-10T01:48:58;-2.20;99.90
64226;DHT22;50545;56.064;26.178;2023-02-10T01:51:38;-2.20;99.90
64226;DHT22;50545;56.064;26.178;2023-02-10T01:54:10;-2.20;99.90
64226;DHT22;50545;56.064;26.178;2023-02-10T01:56:40;-2.20;99.90
64226;DHT22;50545;56.064;26.178;2023-02-10T01:59:08;-2.20;99.90
64226;DHT22;50545;56.064;26.178;2023-02-10T02:01:36;-2.20;99.90
64226;DHT22;50545;56.064;26.178;2023-02-10T02:04:04;-2.20;99.90
64226;DHT22;50545;56.064;26.178;2023-02-10T02:06:33;-2.20;99.90
64226;DHT22;50545;56.064;26.178;2023-02-10T02:09:01;-2.20;99.90
64226;DHT22;50545;56.064;26.178;2023-02-10T02:11:56;-2.10;99.90
64226;DHT22;50545;56.064;26.178;2023-02-10T02:14:41;-2.10;99.90
64226;DHT22;50545;56.064;26.178;2023-02-10T02:17:52;-2.00;99.90
64226;DHT22;50545;56.064;26.178;2023-02-10T02:23:25;-1.90;99.90
64226;DHT22;50545;56.064;26.178;2023-02-10T02:29:26;-1.80;99.90
64226;DHT22;50545;56.064;26.178;2023-02-10T02:37:01;-1.70;99.90
64226;DHT22;50545;56.064;26.178;2023-02-10T02:39:29;-1.60;99.90
64226;DHT22;50545;56.064;26.178;2023-02-10T02:44:47;-1.60;99.90
64226;DHT22;50545;56.064;26.178;2023-02-10T02:47:21;-1.60;99.90
64226;DHT22;50545;56.064;26.178;2023-02-10T03:01:03;-1.50;99.90
64226;DHT22;50545;56.064;26.178;2023-02-10T03:03:35;-1.50;99.90
64226;DHT22;50545;56.064;26.178;2023-02-10T03:06:04;-1.50;99.90
64226;DHT22;50545;56.064;26.178;2023-02-10T03:08:33;-1.50;99.90
64226;DHT22;50545;56.064;26.178;2023-02-10T03:11:01;-1.50;99.90
64226;DHT22;50545;56.064;26.178;2023-02-10T03:13:29;-1.50;99.90
64226;DHT22;50545;56.064;26.178;2023-02-10T03:15:58;-1.50;99.90
64226;DHT22;50545;56.064;26.178;2023-02-10T03:18:26;-1.50;99.90
64226;DHT22;50545;56.064;26.178;2023-02-10T03:20:53;-1.40;99.90
64226;DHT22;50545;56.064;26.178;2023-02-10T03:23:20;-1.40;99.90
64226;DHT22;50545;56.064;26.178;2023-02-10T03:25:48;-1.40;99.90
64226;DHT22;50545;56.064;26.178;2023-02-10T03:28:15;-1.40;99.90
64226;DHT22;50545;56.064;26.178;2023-02-10T03:30:44;-1.40;99.90
64226;DHT22;50545;56.064;26.178;2023-02-10T03:33:14;-1.30;99.90
64226;DHT22;50545;56.064;26.178;2023-02-10T03:35:43;-1.30;99.90
64226;DHT22;50545;56.064;26.178;2023-02-10T03:38:11;-1.40;99.90
64226;DHT22;50545;56.064;26.178;2023-02-10T03:40:39;-1.30;99.90
64226;DHT22;50545;56.064;26.178;2023-02-10T03:43:06;-1.30;99.90
64226;DHT22;50545;56.064;26.178;2023-02-10T03:45:33;-1.30;99.90
64226;DHT22;50545;56.064;26.178;2023-02-10T03:48:00;-1.20;99.90
64226;DHT22;50545;56.064;26.178;2023-02-10T03:50:28;-1.20;99.90
64226;DHT22;50545;56.064;26.178;2023-02-10T03:52:55;-1.20;99.90
64226;DHT22;50545;56.064;26.178;2023-02-10T03:55:22;-1.20;99.90
64226;DHT22;50545;56.064;26.178;2023-02-10T03:57:49;-1.20;99.90
64226;DHT22;50545;56.064;26.178;2023-02-10T04:00:17;-1.20;99.90
64226;DHT22;50545;56.064;26.178;2023-02-10T04:02:44;-1.20;99.90
64226;DHT22;50545;56.064;26.178;2023-02-10T04:05:11;-1.10;99.90
64226;DHT22;50545;56.064;26.178;2023-02-10T04:07:39;-1.10;99.90
64226;DHT22;50545;56.064;26.178;2023-02-10T04:10:07;-1.10;99.90
64226;DHT22;50545;56.064;26.178;2023-02-10T04:12:34;-1.10;99.90
64226;DHT22;50545;56.064;26.178;2023-02-10T04:15:01;-1.00;99.90
64226;DHT22;50545;56.064;26.178;2023-02-10T04:17:28;-1.10;99.90
64226;DHT22;50545;56.064;26.178;2023-02-10T04:19:55;-1.00;99.90
64226;DHT22;50545;56.064;26.178;2023-02-10T04:22:23;-1.00;99.90
64226;DHT22;50545;56.064;26.178;2023-02-10T04:24:50;-1.00;99.90
64226;DHT22;50545;56.064;26.178;2023-02-10T04:27:17;-1.00;99.90
64226;DHT22;50545;56.064;26.178;2023-02-10T04:29:44;-1.00;99.90
64226;DHT22;50545;56.064;26.178;2023-02-10T04:32:12;-1.00;99.90
64226;DHT22;50545;56.064;26.178;2023-02-10T04:34:39;-1.00;99.90
64226;DHT22;50545;56.064;26.178;2023-02-10T04:37:06;-0.90;99.90
64226;DHT22;50545;56.064;26.178;2023-02-10T04:39:33;-0.90;99.90
64226;DHT22;50545;56.064;26.178;2023-02-10T04:42:01;-0.90;99.90
64226;DHT22;50545;56.064;26.178;2023-02-10T04:44:28;-0.90;99.90
64226;DHT22;50545;56.064;26.178;2023-02-10T04:46:55;-0.90;99.90
64226;DHT22;50545;56.064;26.178;2023-02-10T04:49:23;-0.90;99.90
64226;DHT22;50545;56.064;26.178;2023-02-10T04:51:51;-0.90;99.90
64226;DHT22;50545;56.064;26.178;2023-02-10T04:54:18;-0.90;99.90
64226;DHT22;50545;56.064;26.178;2023-02-10T04:56:46;-0.90;99.90
64226;DHT22;50545;56.064;26.178;2023-02-10T04:59:13;-0.90;99.90
64226;DHT22;50545;56.064;26.178;2023-02-10T05:01:40;-1.00;99.90
64226;DHT22;50545;56.064;26.178;2023-02-10T05:04:08;-1.00;99.90
64226;DHT22;50545;56.064;26.178;2023-02-10T05:06:35;-1.00;99.90
64226;DHT22;50545;56.064;26.178;2023-02-10T05:09:02;-0.90;99.90
64226;DHT22;50545;56.064;26.178;2023-02-10T05:11:30;-0.90;99.90
64226;DHT22;50545;56.064;26.178;2023-02-10T05:13:57;-0.90;99.90
64226;DHT22;50545;56.064;26.178;2023-02-10T05:16:25;-0.80;99.90
64226;DHT22;50545;56.064;26.178;2023-02-10T05:18:53;-0.80;99.90
64226;DHT22;50545;56.064;26.178;2023-02-10T05:21:20;-0.80;99.90
64226;DHT22;50545;56.064;26.178;2023-02-10T05:23:47;-0.70;99.90
64226;DHT22;50545;56.064;26.178;2023-02-10T05:26:14;-0.70;99.90
64226;DHT22;50545;56.064;26.178;2023-02-10T05:28:41;-0.70;99.90
64226;DHT22;50545;56.064;26.178;2023-02-10T05:31:09;-0.60;99.90
64226;DHT22;50545;56.064;26.178;2023-02-10T05:33:36;-0.60;99.90
64226;DHT22;50545;56.064;26.178;2023-02-10T05:36:04;-0.60;99.90
64226;DHT22;50545;56.064;26.178;2023-02-10T05:38:32;-0.60;99.90
64226;DHT22;50545;56.064;26.178;2023-02-10T05:40:59;-0.50;99.90
64226;DHT22;50545;56.064;26.178;2023-02-10T05:43:27;-0.50;99.90
64226;DHT22;50545;56.064;26.178;2023-02-10T05:45:54;-0.50;99.90
64226;DHT22;50545;56.064;26.178;2023-02-10T05:48:21;-0.50;99.90
64226;DHT22;50545;56.064;26.178;2023-02-10T05:50:51;-0.50;99.90
64226;DHT22;50545;56.064;26.178;2023-02-10T05:53:18;-0.40;99.90
64226;DHT22;50545;56.064;26.178;2023-02-10T05:55:46;-0.40;99.90
64226;DHT22;50545;56.064;26.178;2023-02-10T05:58:13;-0.40;99.90
64226;DHT22;50545;56.064;26.178;2023-02-10T06:00:41;-0.40;99.90
64226;DHT22;50545;56.064;26.178;2023-02-10T06:03:08;-0.40;99.90
64226;DHT22;50545;56.064;26.178;2023-02-10T06:05:35;-0.40;99.90
64226;DHT22;50545;56.064;26.178;2023-02-10T06:08:03;-0.40;99.90
64226;DHT22;50545;56.064;26.178;2023-02-10T06:10:30;-0.40;99.90
64226;DHT22;50545;56.064;26.178;2023-02-10T06:12:57;-0.30;99.90
64226;DHT22;50545;56.064;26.178;2023-02-10T06:15:25;-0.30;99.90
64226;DHT22;50545;56.064;26.178;2023-02-10T06:17:52;-0.30;99.90
64226;DHT22;50545;56.064;26.178;2023-02-10T06:20:19;-0.30;99.90
64226;DHT22;50545;56.064;26.178;2023-02-10T06:22:46;-0.40;99.90
64226;DHT22;50545;56.064;26.178;2023-02-10T06:25:13;-0.40;99.90
64226;DHT22;50545;56.064;26.178;2023-02-10T06:27:41;-0.40;99.90
64226;DHT22;50545;56.064;26.178;2023-02-10T06:30:09;-0.40;99.90
64226;DHT22;50545;56.064;26.178;2023-02-10T06:32:36;-0.40;99.90
64226;DHT22;50545;56.064;26.178;2023-02-10T06:35:04;-0.40;99.90
64226;DHT22;50545;56.064;26.178;2023-02-10T06:37:31;-0.40;99.90
64226;DHT22;50545;56.064;26.178;2023-02-10T06:39:58;-0.40;99.90
64226;DHT22;50545;56.064;26.178;2023-02-10T06:42:25;-0.40;99.90
64226;DHT22;50545;56.064;26.178;2023-02-10T06:44:52;-0.40;99.90
64226;DHT22;50545;56.064;26.178;2023-02-10T06:47:19;-0.40;99.90
64226;DHT22;50545;56.064;26.178;2023-02-10T06:49:47;-0.40;99.90
64226;DHT22;50545;56.064;26.178;2023-02-10T06:52:14;-0.30;99.90
64226;DHT22;50545;56.064;26.178;2023-02-10T06:54:43;-0.20;99.90
64226;DHT22;50545;56.064;26.178;2023-02-10T06:57:11;-0.20;99.90
64226;DHT22;50545;56.064;26.178;2023-02-10T06:59:38;-0.10;99.90
64226;DHT22;50545;56.064;26.178;2023-02-10T07:02:05;0.00;99.90
64226;DHT22;50545;56.064;26.178;2023-02-10T07:04:36;0.00;99.90
64226;DHT22;50545;56.064;26.178;2023-02-10T07:07:04;0.00;99.90
64226;DHT22;50545;56.064;26.178;2023-02-10T07:09:31;0.00;99.90
64226;DHT22;50545;56.064;26.178;2023-02-10T07:11:59;0.10;99.90
64226;DHT22;50545;56.064;26.178;2023-02-10T07:14:26;0.10;99.90
64226;DHT22;50545;56.064;26.178;2023-02-10T07:16:53;0.00;99.90
64226;DHT22;50545;56.064;26.178;2023-02-10T07:19:20;0.00;99.90
64226;DHT22;50545;56.064;26.178;2023-02-10T07:21:48;0.00;99.90
64226;DHT22;50545;56.064;26.178;2023-02-10T07:24:15;0.00;99.90
64226;DHT22;50545;56.064;26.178;2023-02-10T07:26:42;0.10;99.90
64226;DHT22;50545;56.064;26.178;2023-02-10T07:29:10;0.10;99.90
64226;DHT22;50545;56.064;26.178;2023-02-10T07:31:38;0.20;99.90
64226;DHT22;50545;56.064;26.178;2023-02-10T07:34:05;0.30;99.90
64226;DHT22;50545;56.064;26.178;2023-02-10T07:36:32;0.30;99.90
64226;DHT22;50545;56.064;26.178;2023-02-10T07:39:00;0.30;99.90
64226;DHT22;50545;56.064;26.178;2023-02-10T07:41:27;0.30;99.90
64226;DHT22;50545;56.064;26.178;2023-02-10T07:43:54;0.30;99.90
64226;DHT22;50545;56.064;26.178;2023-02-10T07:46:21;0.40;99.90
64226;DHT22;50545;56.064;26.178;2023-02-10T07:48:48;0.50;99.90
64226;DHT22;50545;56.064;26.178;2023-02-10T07:51:16;0.60;99.90
64226;DHT22;50545;56.064;26.178;2023-02-10T07:53:43;0.60;99.90
64226;DHT22;50545;56.064;26.178;2023-02-10T07:56:10;0.80;99.90
64226;DHT22;50545;56.064;26.178;2023-02-10T07:58:38;0.80;99.90
64226;DHT22;50545;56.064;26.178;2023-02-10T08:01:09;1.00;99.90
64226;DHT22;50545;56.064;26.178;2023-02-10T08:03:37;1.00;99.90
64226;DHT22;50545;56.064;26.178;2023-02-10T08:06:05;1.00;99.90
64226;DHT22;50545;56.064;26.178;2023-02-10T08:08:33;1.00;99.90
64226;DHT22;50545;56.064;26.178;2023-02-10T08:11:05;1.00;99.90
64226;DHT22;50545;56.064;26.178;2023-02-10T08:13:33;1.00;99.90
64226;DHT22;50545;56.064;26.178;2023-02-10T08:16:06;1.10;99.90
64226;DHT22;50545;56.064;26.178;2023-02-10T08:18:35;1.10;99.90
64226;DHT22;50545;56.064;26.178;2023-02-10T08:21:02;1.00;99.90
64226;DHT22;50545;56.064;26.178;2023-02-10T08:23:30;1.00;99.90
64226;DHT22;50545;56.064;26.178;2023-02-10T08:25:58;1.00;99.90
64226;DHT22;50545;56.064;26.178;2023-02-10T08:28:25;1.10;99.90
64226;DHT22;50545;56.064;26.178;2023-02-10T08:30:52;1.20;99.90
64226;DHT22;50545;56.064;26.178;2023-02-10T08:33:20;1.20;99.90
64226;DHT22;50545;56.064;26.178;2023-02-10T08:35:47;1.20;99.90
64226;DHT22;50545;56.064;26.178;2023-02-10T08:38:16;1.30;99.90
64226;DHT22;50545;56.064;26.178;2023-02-10T08:40:43;1.40;99.90
64226;DHT22;50545;56.064;26.178;2023-02-10T08:43:10;1.40;99.90
64226;DHT22;50545;56.064;26.178;2023-02-10T08:45:38;1.50;99.90
64226;DHT22;50545;56.064;26.178;2023-02-10T08:48:07;1.50;99.90
64226;DHT22;50545;56.064;26.178;2023-02-10T08:50:34;1.50;99.90
64226;DHT22;50545;56.064;26.178;2023-02-10T08:53:01;1.40;99.90
64226;DHT22;50545;56.064;26.178;2023-02-10T08:55:28;1.40;99.90
64226;DHT22;50545;56.064;26.178;2023-02-10T08:57:55;1.40;99.90
64226;DHT22;50545;56.064;26.178;2023-02-10T09:00:23;1.40;99.90
64226;DHT22;50545;56.064;26.178;2023-02-10T09:02:50;1.40;99.90
64226;DHT22;50545;56.064;26.178;2023-02-10T09:05:17;1.50;99.90
64226;DHT22;50545;56.064;26.178;2023-02-10T09:07:46;1.50;99.90
64226;DHT22;50545;56.064;26.178;2023-02-10T09:10:14;1.60;99.90
64226;DHT22;50545;56.064;26.178;2023-02-10T09:12:42;1.60;99.90
64226;DHT22;50545;56.064;26.178;2023-02-10T09:15:10;1.60;99.90
64226;DHT22;50545;56.064;26.178;2023-02-10T09:17:37;1.60;99.90
64226;DHT22;50545;56.064;26.178;2023-02-10T09:20:05;1.70;99.90
64226;DHT22;50545;56.064;26.178;2023-02-10T09:22:33;1.70;99.90
64226;DHT22;50545;56.064;26.178;2023-02-10T09:25:00;1.70;99.90
64226;DHT22;50545;56.064;26.178;2023-02-10T09:27:27;1.70;99.90
64226;DHT22;50545;56.064;26.178;2023-02-10T09:29:54;1.80;99.90
64226;DHT22;50545;56.064;26.178;2023-02-10T09:32:22;1.70;99.90
64226;DHT22;50545;56.064;26.178;2023-02-10T09:34:49;1.70;99.90
64226;DHT22;50545;56.064;26.178;2023-02-10T09:37:16;1.70;99.90
64226;DHT22;50545;56.064;26.178;2023-02-10T09:39:44;1.80;99.90
64226;DHT22;50545;56.064;26.178;2023-02-10T09:43:20;1.90;99.90
64226;DHT22;50545;56.064;26.178;2023-02-10T09:45:21;2.00;99.90
64226;DHT22;50545;56.064;26.178;2023-02-10T09:53:21;2.10;99.90
64226;DHT22;50545;56.064;26.178;2023-02-10T09:56:04;2.20;99.90
64226;DHT22;50545;56.064;26.178;2023-02-10T09:58:45;2.30;99.90
64226;DHT22;50545;56.064;26.178;2023-02-10T10:04:08;2.50;99.90
64226;DHT22;50545;56.064;26.178;2023-02-10T10:06:41;2.60;99.90
64226;DHT22;50545;56.064;26.178;2023-02-10T10:11:51;2.70;99.90
64226;DHT22;50545;56.064;26.178;2023-02-10T10:14:36;2.70;99.90
64226;DHT22;50545;56.064;26.178;2023-02-10T10:31:34;3.10;99.90
64226;DHT22;50545;56.064;26.178;2023-02-10T10:34:12;3.10;99.90
64226;DHT22;50545;56.064;26.178;2023-02-10T10:36:49;3.10;99.90
64226;DHT22;50545;56.064;26.178;2023-02-10T10:39:46;3.10;99.90
64226;DHT22;50545;56.064;26.178;2023-02-10T10:42:46;3.10;99.90
64226;DHT22;50545;56.064;26.178;2023-02-10T10:45:17;3.20;99.90
64226;DHT22;50545;56.064;26.178;2023-02-10T10:48:09;3.20;99.90
64226;DHT22;50545;56.064;26.178;2023-02-10T10:50:38;3.20;99.90
64226;DHT22;50545;56.064;26.178;2023-02-10T10:53:15;3.10;99.90
64226;DHT22;50545;56.064;26.178;2023-02-10T10:55:52;3.10;99.90
64226;DHT22;50545;56.064;26.178;2023-02-10T10:58:31;3.10;99.90
64226;DHT22;50545;56.064;26.178;2023-02-10T11:01:02;3.20;99.90
64226;DHT22;50545;56.064;26.178;2023-02-10T11:03:31;3.30;99.90
64226;DHT22;50545;56.064;26.178;2023-02-10T11:06:08;3.40;99.90
64226;DHT22;50545;56.064;26.178;2023-02-10T11:08:37;3.60;99.90
64226;DHT22;50545;56.064;26.178;2023-02-10T11:11:15;3.80;99.80
64226;DHT22;50545;56.064;26.178;2023-02-10T11:14:09;3.80;97.60
64226;DHT22;50545;56.064;26.178;2023-02-10T11:16:50;3.60;98.00
64226;DHT22;50545;56.064;26.178;2023-02-10T11:19:24;3.50;98.10
64226;DHT22;50545;56.064;26.178;2023-02-10T11:21:53;3.50;96.80
64226;DHT22;50545;56.064;26.178;2023-02-10T11:24:24;3.50;97.60
64226;DHT22;50545;56.064;26.178;2023-02-10T11:27:12;3.50;96.60
64226;DHT22;50545;56.064;26.178;2023-02-10T11:29:47;3.40;95.90
64226;DHT22;50545;56.064;26.178;2023-02-10T11:32:31;3.50;95.40
64226;DHT22;50545;56.064;26.178;2023-02-10T11:35:02;3.50;94.70
64226;DHT22;50545;56.064;26.178;2023-02-10T11:37:34;3.60;94.70
64226;DHT22;50545;56.064;26.178;2023-02-10T11:40:18;3.50;92.60
64226;DHT22;50545;56.064;26.178;2023-02-10T11:42:51;3.50;92.10
64226;DHT22;50545;56.064;26.178;2023-02-10T11:45:22;3.40;91.50
64226;DHT22;50545;56.064;26.178;2023-02-10T11:48:17;3.40;90.70
64226;DHT22;50545;56.064;26.178;2023-02-10T11:50:46;3.20;87.00
64226;DHT22;50545;56.064;26.178;2023-02-10T11:53:28;3.10;88.40
64226;DHT22;50545;56.064;26.178;2023-02-10T11:56:05;3.10;88.40
64226;DHT22;50545;56.064;26.178;2023-02-10T12:09:52;2.90;84.90
64226;DHT22;50545;56.064;26.178;2023-02-10T12:37:13;3.00;82.60
64226;DHT22;50545;56.064;26.178;2023-02-10T12:46:05;3.20;79.70
64226;DHT22;50545;56.064;26.178;2023-02-10T12:51:36;3.20;81.30
64226;DHT22;50545;56.064;26.178;2023-02-10T12:54:41;3.10;82.10
64226;DHT22;50545;56.064;26.178;2023-02-10T12:57:14;3.10;79.90
64226;DHT22;50545;56.064;26.178;2023-02-10T13:02:40;3.20;79.70
64226;DHT22;50545;56.064;26.178;2023-02-10T13:05:14;3.20;80.90
64226;DHT22;50545;56.064;26.178;2023-02-10T13:07:59;3.10;82.90
64226;DHT22;50545;56.064;26.178;2023-02-10T13:10:51;3.20;80.10
64226;DHT22;50545;56.064;26.178;2023-02-10T13:13:25;3.20;82.60
64226;DHT22;50545;56.064;26.178;2023-02-10T13:18:52;3.10;81.00
64226;DHT22;50545;56.064;26.178;2023-02-10T13:21:31;3.00;81.20
64226;DHT22;50545;56.064;26.178;2023-02-10T13:27:10;3.10;80.80
64226;DHT22;50545;56.064;26.178;2023-02-10T13:29:41;3.10;82.20
64226;DHT22;50545;56.064;26.178;2023-02-10T13:34:48;3.20;78.70
64226;DHT22;50545;56.064;26.178;2023-02-10T13:37:39;3.20;80.90
64226;DHT22;50545;56.064;26.178;2023-02-10T13:40:25;3.30;80.00
64226;DHT22;50545;56.064;26.178;2023-02-10T13:42:58;3.30;77.10
64226;DHT22;50545;56.064;26.178;2023-02-10T13:45:33;3.30;78.60
64226;DHT22;50545;56.064;26.178;2023-02-10T13:48:18;3.30;80.40
64226;DHT22;50545;56.064;26.178;2023-02-10T13:51:03;3.30;83.50
64226;DHT22;50545;56.064;26.178;2023-02-10T14:04:26;3.00;81.10
64226;DHT22;50545;56.064;26.178;2023-02-10T14:06:54;2.90;83.40
64226;DHT22;50545;56.064;26.178;2023-02-10T14:11:58;2.70;83.70
64226;DHT22;50545;56.064;26.178;2023-02-10T14:14:29;2.70;85.90
64226;DHT22;50545;56.064;26.178;2023-02-10T14:19:41;2.60;87.30
64226;DHT22;50545;56.064;26.178;2023-02-10T14:22:36;2.50;87.90
64226;DHT22;50545;56.064;26.178;2023-02-10T14:25:40;2.40;88.30
64226;DHT22;50545;56.064;26.178;2023-02-10T14:28:46;2.40;88.10
64226;DHT22;50545;56.064;26.178;2023-02-10T14:31:32;2.30;88.80
64226;DHT22;50545;56.064;26.178;2023-02-10T14:34:15;2.30;89.80
64226;DHT22;50545;56.064;26.178;2023-02-10T14:39:22;2.20;90.80
64226;DHT22;50545;56.064;26.178;2023-02-10T14:41:50;2.10;91.00
64226;DHT22;50545;56.064;26.178;2023-02-10T14:46:54;2.00;91.70
64226;DHT22;50545;56.064;26.178;2023-02-10T14:49:22;2.00;92.10
64226;DHT22;50545;56.064;26.178;2023-02-10T14:51:50;1.90;92.30
64226;DHT22;50545;56.064;26.178;2023-02-10T14:54:24;1.90;92.40
64226;DHT22;50545;56.064;26.178;2023-02-10T14:56:54;1.80;92.80
64226;DHT22;50545;56.064;26.178;2023-02-10T14:59:29;1.80;93.10
64226;DHT22;50545;56.064;26.178;2023-02-10T15:02:18;1.80;93.30
64226;DHT22;50545;56.064;26.178;2023-02-10T15:04:48;1.70;93.30
64226;DHT22;50545;56.064;26.178;2023-02-10T15:07:37;1.70;93.60
64226;DHT22;50545;56.064;26.178;2023-02-10T15:12:56;1.60;94.30
64226;DHT22;50545;56.064;26.178;2023-02-10T15:15:28;1.60;94.60
64226;DHT22;50545;56.064;26.178;2023-02-10T15:18:02;1.50;94.70
64226;DHT22;50545;56.064;26.178;2023-02-10T15:20:32;1.50;95.10
64226;DHT22;50545;56.064;26.178;2023-02-10T15:27:58;1.50;95.00
64226;DHT22;50545;56.064;26.178;2023-02-10T15:30:27;1.50;95.00
64226;DHT22;50545;56.064;26.178;2023-02-10T15:32:57;1.40;95.20
64226;DHT22;50545;56.064;26.178;2023-02-10T15:35:25;1.40;95.60
64226;DHT22;50545;56.064;26.178;2023-02-10T15:37:56;1.40;95.40
64226;DHT22;50545;56.064;26.178;2023-02-10T15:40:29;1.40;95.50
64226;DHT22;50545;56.064;26.178;2023-02-10T15:43:03;1.40;95.40
64226;DHT22;50545;56.064;26.178;2023-02-10T15:45:31;1.30;95.30
64226;DHT22;50545;56.064;26.178;2023-02-10T15:48:06;1.30;95.50
64226;DHT22;50545;56.064;26.178;2023-02-10T15:50:35;1.30;95.40
64226;DHT22;50545;56.064;26.178;2023-02-10T15:53:04;1.40;95.40
64226;DHT22;50545;56.064;26.178;2023-02-10T15:55:36;1.30;95.70
64226;DHT22;50545;56.064;26.178;2023-02-10T15:58:04;1.30;95.70
64226;DHT22;50545;56.064;26.178;2023-02-10T16:00:34;1.20;96.00
64226;DHT22;50545;56.064;26.178;2023-02-10T16:03:02;1.20;96.30
64226;DHT22;50545;56.064;26.178;2023-02-10T16:05:30;1.10;96.40
64226;DHT22;50545;56.064;26.178;2023-02-10T16:08:02;1.20;96.50
64226;DHT22;50545;56.064;26.178;2023-02-10T16:10:31;1.10;96.70
64226;DHT22;50545;56.064;26.178;2023-02-10T16:12:59;1.00;96.90
64226;DHT22;50545;56.064;26.178;2023-02-10T16:15:26;1.00;96.80
64226;DHT22;50545;56.064;26.178;2023-02-10T16:17:58;1.00;96.80
64226;DHT22;50545;56.064;26.178;2023-02-10T16:20:29;1.00;96.80
64226;DHT22;50545;56.064;26.178;2023-02-10T16:22:57;1.00;96.80
64226;DHT22;50545;56.064;26.178;2023-02-10T16:25:31;1.00;97.00
64226;DHT22;50545;56.064;26.178;2023-02-10T16:27:59;0.90;97.30
64226;DHT22;50545;56.064;26.178;2023-02-10T16:30:27;0.90;97.40
64226;DHT22;50545;56.064;26.178;2023-02-10T16:32:55;0.80;97.40
64226;DHT22;50545;56.064;26.178;2023-02-10T16:35:23;0.80;97.50
64226;DHT22;50545;56.064;26.178;2023-02-10T16:37:52;0.80;97.70
64226;DHT22;50545;56.064;26.178;2023-02-10T16:40:25;0.80;97.90
64226;DHT22;50545;56.064;26.178;2023-02-10T16:42:52;0.80;98.10
64226;DHT22;50545;56.064;26.178;2023-02-10T16:45:25;0.70;98.20
64226;DHT22;50545;56.064;26.178;2023-02-10T16:47:53;0.70;98.00
64226;DHT22;50545;56.064;26.178;2023-02-10T16:50:39;0.70;98.20
64226;DHT22;50545;56.064;26.178;2023-02-10T16:53:08;0.70;98.20
64226;DHT22;50545;56.064;26.178;2023-02-10T16:55:37;0.70;98.40
64226;DHT22;50545;56.064;26.178;2023-02-10T16:58:05;0.60;98.50
64226;DHT22;50545;56.064;26.178;2023-02-10T17:00:33;0.60;98.70
64226;DHT22;50545;56.064;26.178;2023-02-10T17:03:00;0.50;99.00
64226;DHT22;50545;56.064;26.178;2023-02-10T17:05:27;0.40;99.20
64226;DHT22;50545;56.064;26.178;2023-02-10T17:07:56;0.40;99.40
64226;DHT22;50545;56.064;26.178;2023-02-10T17:10:26;0.40;99.30
64226;DHT22;50545;56.064;26.178;2023-02-10T17:12:54;0.40;99.30
64226;DHT22;50545;56.064;26.178;2023-02-10T17:15:22;0.40;99.40
64226;DHT22;50545;56.064;26.178;2023-02-10T17:17:49;0.40;99.30
64226;DHT22;50545;56.064;26.178;2023-02-10T17:20:26;0.40;99.40
64226;DHT22;50545;56.064;26.178;2023-02-10T17:22:54;0.40;99.50
64226;DHT22;50545;56.064;26.178;2023-02-10T17:25:22;0.30;99.70
64226;DHT22;50545;56.064;26.178;2023-02-10T17:27:51;0.20;99.90
64226;DHT22;50545;56.064;26.178;2023-02-10T17:30:21;0.20;99.90
64226;DHT22;50545;56.064;26.178;2023-02-10T17:32:49;0.20;99.90
64226;DHT22;50545;56.064;26.178;2023-02-10T17:35:18;0.20;99.90
64226;DHT22;50545;56.064;26.178;2023-02-10T17:37:47;0.10;99.90
64226;DHT22;50545;56.064;26.178;2023-02-10T17:40:17;0.10;99.90
64226;DHT22;50545;56.064;26.178;2023-02-10T17:43:00;0.10;99.90
64226;DHT22;50545;56.064;26.178;2023-02-10T17:45:27;0.00;99.90
64226;DHT22;50545;56.064;26.178;2023-02-10T17:47:54;0.00;99.90
64226;DHT22;50545;56.064;26.178;2023-02-10T17:50:22;0.00;99.90
64226;DHT22;50545;56.064;26.178;2023-02-10T17:52:49;0.00;99.90
64226;DHT22;50545;56.064;26.178;2023-02-10T17:55:16;0.00;99.90
64226;DHT22;50545;56.064;26.178;2023-02-10T17:57:48;0.00;99.90
64226;DHT22;50545;56.064;26.178;2023-02-10T18:00:16;0.00;99.90
64226;DHT22;50545;56.064;26.178;2023-02-10T18:02:43;-0.10;99.90
64226;DHT22;50545;56.064;26.178;2023-02-10T18:05:11;-0.10;99.90